createdAt,value
2024-02-27T00:00:12.704Z,2.72
2024-02-27T00:02:39.485Z,3.72
2024-02-27T00:05:06.566Z,3.97
2024-02-27T00:07:33.573Z,4.57
2024-02-27T00:10:00.486Z,4.53
2024-02-27T00:12:27.426Z,5.50
2024-02-27T00:14:54.652Z,4.38
2024-02-27T00:17:22.342Z,4.38
2024-02-27T00:19:49.124Z,1.50
2024-02-27T00:22:16.813Z,2.78
2024-02-27T00:24:43.427Z,4.55
2024-02-27T00:27:10.010Z,2.85
2024-02-27T00:29:36.650Z,4.20
2024-02-27T00:32:03.406Z,3.90
2024-02-27T00:34:30.040Z,4.05
2024-02-27T00:36:56.999Z,4.35
2024-02-27T00:39:23.975Z,3.55
2024-02-27T00:41:51.070Z,3.95
2024-02-27T00:44:17.692Z,3.72
2024-02-27T00:46:44.413Z,5.45
2024-02-27T00:49:11.287Z,4.40
2024-02-27T00:51:38.121Z,4.38
2024-02-27T00:54:04.701Z,3.72
2024-02-27T00:56:31.274Z,4.63
2024-02-27T00:58:57.876Z,3.58
2024-02-27T01:01:24.457Z,4.43
2024-02-27T01:03:51.364Z,2.58
2024-02-27T01:06:18.263Z,3.20
2024-02-27T01:08:45.013Z,5.25
2024-02-27T01:11:11.846Z,3.92
2024-02-27T01:13:38.843Z,4.82
2024-02-27T01:16:05.782Z,3.53
2024-02-27T01:18:32.471Z,4.30
2024-02-27T01:20:59.636Z,3.83
2024-02-27T01:23:26.264Z,4.15
2024-02-27T01:25:52.833Z,4.50
2024-02-27T01:28:19.382Z,3.05
2024-02-27T01:30:45.965Z,4.35
2024-02-27T01:33:12.755Z,3.88
2024-02-27T01:35:39.514Z,4.60
2024-02-27T01:38:06.118Z,4.07
2024-02-27T01:40:32.632Z,4.10
2024-02-27T01:42:59.179Z,4.95
2024-02-27T01:45:27.453Z,3.03
2024-02-27T01:47:54.868Z,3.55
2024-02-27T01:50:24.546Z,4.45
2024-02-27T01:52:52.240Z,3.53
2024-02-27T01:55:20.003Z,4.07
2024-02-27T01:57:47.552Z,4.47
2024-02-27T02:00:15.741Z,3.08
2024-02-27T02:02:45.771Z,3.78
2024-02-27T02:05:13.547Z,2.85
2024-02-27T02:07:41.483Z,3.85
2024-02-27T02:10:12.460Z,4.15
2024-02-27T02:12:39.349Z,3.72
2024-02-27T02:15:06.492Z,3.13
2024-02-27T02:17:35.050Z,3.60
2024-02-27T02:20:06.220Z,4.43
2024-02-27T02:22:33.934Z,3.72
2024-02-27T02:25:01.661Z,4.00
2024-02-27T02:27:29.815Z,3.72
2024-02-27T02:29:57.380Z,3.60
2024-02-27T02:32:24.064Z,4.18
2024-02-27T02:34:50.605Z,3.38
2024-02-27T02:37:17.230Z,2.72
2024-02-27T02:39:43.779Z,3.65
2024-02-27T02:42:10.471Z,3.08
2024-02-27T02:44:37.102Z,2.95
2024-02-27T02:47:03.823Z,3.53
2024-02-27T02:49:30.605Z,2.63
2024-02-27T02:51:57.215Z,4.97
2024-02-27T02:54:24.250Z,3.30
2024-02-27T02:56:50.864Z,2.95
2024-02-27T02:59:17.437Z,3.10
2024-02-27T03:01:43.975Z,2.30
2024-02-27T03:04:10.759Z,2.35
2024-02-27T03:06:37.686Z,2.80
2024-02-27T03:09:04.392Z,3.55
2024-02-27T03:11:31.112Z,3.17
2024-02-27T03:13:57.703Z,3.55
2024-02-27T03:16:24.285Z,3.75
2024-02-27T03:18:50.937Z,3.60
2024-02-27T03:21:17.561Z,2.40
2024-02-27T03:23:44.227Z,3.83
2024-02-27T03:26:16.228Z,3.40
2024-02-27T03:28:42.799Z,2.58
2024-02-27T03:31:10.889Z,1.77
2024-02-27T03:33:37.572Z,3.30
2024-02-27T03:36:04.896Z,3.42
2024-02-27T03:38:36.466Z,3.25
2024-02-27T03:41:03.023Z,3.20
2024-02-27T03:43:30.427Z,3.40
2024-02-27T03:45:57.060Z,3.00
2024-02-27T03:48:24.192Z,2.58
2024-02-27T03:50:50.981Z,3.95
2024-02-27T03:53:17.495Z,2.35
2024-02-27T03:55:44.098Z,2.70
2024-02-27T03:58:11.248Z,2.55
2024-02-27T04:00:38.018Z,2.70
2024-02-27T04:03:05.031Z,4.25
2024-02-27T04:05:31.605Z,3.47
2024-02-27T04:07:58.155Z,2.72
2024-02-27T04:10:24.745Z,2.50
2024-02-27T04:12:51.389Z,3.58
2024-02-27T04:15:18.028Z,2.72
2024-02-27T04:17:44.721Z,1.70
2024-02-27T04:20:11.900Z,3.15
2024-02-27T04:22:38.507Z,2.97
2024-02-27T04:25:05.538Z,3.47
2024-02-27T04:27:32.272Z,3.20
2024-02-27T04:29:59.036Z,3.13
2024-02-27T04:32:25.593Z,3.05
2024-02-27T04:34:52.099Z,3.10
2024-02-27T04:39:45.855Z,2.67
2024-02-27T04:42:12.553Z,2.15
2024-02-27T04:44:39.147Z,2.72
2024-02-27T04:47:08.712Z,2.08
2024-02-27T04:49:35.424Z,2.88
2024-02-27T04:52:02.103Z,3.25
2024-02-27T04:54:28.670Z,2.03
2024-02-27T04:56:55.934Z,2.90
2024-02-27T04:59:23.015Z,1.90
2024-02-27T05:01:51.670Z,2.88
2024-02-27T05:04:19.940Z,3.47
2024-02-27T05:06:46.731Z,1.65
2024-02-27T05:09:13.555Z,2.35
2024-02-27T05:11:40.172Z,2.92
2024-02-27T05:14:06.671Z,3.17
2024-02-27T05:18:59.770Z,4.55
2024-02-27T05:21:26.447Z,2.35
2024-02-27T05:23:52.972Z,3.65
2024-02-27T05:28:45.912Z,2.75
2024-02-27T05:31:29.545Z,2.85
2024-02-27T05:33:58.025Z,2.47
2024-02-27T05:36:26.270Z,3.17
2024-02-27T05:38:55.080Z,2.17
2024-02-27T05:41:22.077Z,2.72
2024-02-27T05:43:49.218Z,3.20
2024-02-27T05:46:15.776Z,3.17
2024-02-27T05:48:44.504Z,2.33
2024-02-27T05:51:11.328Z,2.30
2024-02-27T05:53:38.421Z,3.33
2024-02-27T05:56:05.477Z,3.22
2024-02-27T05:58:31.978Z,2.55
2024-02-27T06:03:25.713Z,2.70
2024-02-27T06:05:52.729Z,3.65
2024-02-27T06:08:19.389Z,1.98
2024-02-27T06:10:46.998Z,2.45
2024-02-27T06:13:13.700Z,2.30
2024-02-27T06:15:40.485Z,2.65
2024-02-27T06:18:14.342Z,3.22
2024-02-27T06:21:00.513Z,2.13
2024-02-27T06:23:28.522Z,1.90
2024-02-27T06:25:55.935Z,4.55
2024-02-27T06:28:23.149Z,2.80
2024-02-27T06:30:49.857Z,3.33
2024-02-27T06:33:16.807Z,3.25
2024-02-27T06:35:43.431Z,4.03
2024-02-27T06:40:36.478Z,3.72
2024-02-27T06:43:03.874Z,3.47
2024-02-27T06:45:30.454Z,2.88
2024-02-27T06:47:57.133Z,3.38
2024-02-27T06:50:23.949Z,3.30
2024-02-27T06:52:50.429Z,1.85
2024-02-27T06:57:43.656Z,3.08
2024-02-27T07:00:11.266Z,2.38
2024-02-27T07:02:37.905Z,3.53
2024-02-27T07:05:04.845Z,3.45
2024-02-27T07:07:31.657Z,1.52
2024-02-27T07:09:58.237Z,3.90
2024-02-27T07:14:51.283Z,3.63
2024-02-27T07:17:21.857Z,3.92
2024-02-27T07:19:48.426Z,3.20
2024-02-27T07:22:14.996Z,3.40
2024-02-27T07:24:41.812Z,2.53
2024-02-27T07:27:08.424Z,2.67
2024-02-27T07:29:34.952Z,4.32
2024-02-27T07:34:28.320Z,2.67
2024-02-27T07:36:55.002Z,2.80
2024-02-27T07:39:22.791Z,3.28
2024-02-27T07:41:49.396Z,3.20
2024-02-27T07:44:16.589Z,4.07
2024-02-27T07:46:43.301Z,3.50
2024-02-27T07:49:11.332Z,4.53
2024-02-27T07:51:38.977Z,5.18
2024-02-27T07:54:05.726Z,3.58
2024-02-27T07:56:33.776Z,2.75
2024-02-27T07:59:00.706Z,2.45
2024-02-27T08:01:27.462Z,2.47
2024-02-27T08:03:55.152Z,4.80
2024-02-27T08:06:23.925Z,3.30
2024-02-27T08:08:53.489Z,3.05
2024-02-27T08:11:20.102Z,4.00
2024-02-27T08:13:46.747Z,2.90
2024-02-27T08:16:13.451Z,3.90
2024-02-27T08:18:40.173Z,2.95
2024-02-27T08:21:07.109Z,3.65
2024-02-27T08:23:33.619Z,3.03
2024-02-27T08:28:26.819Z,5.45
2024-02-27T08:30:53.424Z,3.20
2024-02-27T08:33:20.625Z,5.88
2024-02-27T08:35:49.090Z,1.88
2024-02-27T08:38:15.644Z,5.80
2024-02-27T08:40:42.223Z,4.60
2024-02-27T08:43:08.734Z,4.20
2024-02-27T08:48:04.295Z,2.67
2024-02-27T08:50:30.950Z,4.63
2024-02-27T08:52:57.497Z,4.53
2024-02-27T08:55:26.355Z,2.88
2024-02-27T08:57:53.338Z,4.00
2024-02-27T09:00:20.397Z,3.10
2024-02-27T09:02:46.941Z,4.22
2024-02-27T09:05:14.072Z,3.22
2024-02-27T09:07:42.459Z,4.95
2024-02-27T09:10:10.875Z,4.40
2024-02-27T09:12:37.978Z,4.72
2024-02-27T09:15:07.641Z,2.60
2024-02-27T09:17:36.375Z,4.28
2024-02-27T09:20:07.903Z,4.80
2024-02-27T09:22:35.080Z,4.50
2024-02-27T09:25:02.552Z,3.67
2024-02-27T09:27:29.261Z,5.07
2024-02-27T09:29:55.946Z,6.53
2024-02-27T09:32:23.352Z,4.20
2024-02-27T09:34:51.344Z,4.35
2024-02-27T09:37:19.524Z,4.55
2024-02-27T09:39:54.203Z,6.07
2024-02-27T09:42:34.558Z,5.15
2024-02-27T09:45:06.532Z,4.75
2024-02-27T09:47:37.963Z,6.53
2024-02-27T09:50:06.888Z,4.93
2024-02-27T09:52:34.693Z,4.80
2024-02-27T09:55:02.326Z,4.72
2024-02-27T09:57:29.199Z,4.10
2024-02-27T09:59:56.162Z,3.92
2024-02-27T10:02:23.013Z,5.57
2024-02-27T10:04:50.548Z,5.78
2024-02-27T10:07:19.572Z,5.53
2024-02-27T10:09:47.507Z,4.80
2024-02-27T10:12:15.107Z,4.82
2024-02-27T10:14:42.645Z,5.65
2024-02-27T10:17:10.334Z,5.68
2024-02-27T10:19:38.430Z,6.45
2024-02-27T10:22:05.675Z,5.82
2024-02-27T10:24:32.296Z,4.13
2024-02-27T10:27:04.023Z,5.65
2024-02-27T10:29:31.959Z,6.53
2024-02-27T10:31:58.981Z,5.18
2024-02-27T10:34:27.312Z,5.13
2024-02-27T10:36:59.222Z,5.90
2024-02-27T10:39:26.228Z,5.32
2024-02-27T10:41:53.325Z,5.10
2024-02-27T10:44:21.160Z,4.53
2024-02-27T10:46:51.690Z,6.63
2024-02-27T10:49:18.832Z,6.05
2024-02-27T10:51:46.472Z,5.85
2024-02-27T10:54:17.603Z,6.10
2024-02-27T10:56:45.817Z,6.72
2024-02-27T10:59:13.061Z,5.90
2024-02-27T11:01:43.508Z,5.68
2024-02-27T11:04:19.541Z,5.93
2024-02-27T11:06:50.287Z,5.65
2024-02-27T11:09:28.392Z,7.13
2024-02-27T11:12:00.583Z,5.95
2024-02-27T11:14:28.791Z,5.25
2024-02-27T11:17:09.929Z,5.18
2024-02-27T11:19:40.467Z,4.57
2024-02-27T11:22:08.085Z,6.05
2024-02-27T11:24:34.903Z,4.18
2024-02-27T11:27:01.630Z,6.30
2024-02-27T11:29:28.922Z,5.45
2024-02-27T11:31:55.815Z,5.40
2024-02-27T11:34:25.325Z,4.68
2024-02-27T11:37:20.286Z,5.10
2024-02-27T11:39:47.608Z,5.03
2024-02-27T11:42:27.798Z,4.90
2024-02-27T11:45:06.805Z,4.75
2024-02-27T11:47:38.507Z,4.93
2024-02-27T11:50:07.581Z,5.28
2024-02-27T11:52:35.800Z,4.28
2024-02-27T11:55:07.258Z,4.78
2024-02-27T11:57:36.354Z,5.10
2024-02-27T12:00:17.062Z,4.97
2024-02-27T12:02:48.221Z,4.85
2024-02-27T12:05:19.362Z,4.80
2024-02-27T12:07:46.079Z,5.82
2024-02-27T12:10:14.610Z,4.35
2024-02-27T12:12:42.073Z,4.78
2024-02-27T12:15:10.675Z,5.15
2024-02-27T12:17:38.252Z,4.82
2024-02-27T12:20:10.739Z,4.47
2024-02-27T12:22:46.240Z,5.13
2024-02-27T12:25:13.675Z,4.63
2024-02-27T12:27:40.327Z,4.45
2024-02-27T12:30:11.691Z,4.22
2024-02-27T12:32:42.564Z,5.80
2024-02-27T12:35:11.120Z,4.72
2024-02-27T12:37:43.987Z,5.38
2024-02-27T12:40:13.711Z,5.43
2024-02-27T12:42:49.008Z,4.63
2024-02-27T12:45:17.929Z,4.57
2024-02-27T12:47:47.923Z,4.28
2024-02-27T12:50:21.003Z,4.93
2024-02-27T12:52:58.834Z,4.47
2024-02-27T12:55:33.866Z,4.38
2024-02-27T12:58:00.558Z,4.70
2024-02-27T13:00:32.135Z,4.97
2024-02-27T13:02:59.053Z,5.28
2024-02-27T13:05:26.754Z,4.93
2024-02-27T13:07:56.536Z,5.15
2024-02-27T13:10:23.624Z,4.80
2024-02-27T13:13:19.307Z,5.53
2024-02-27T13:15:50.781Z,5.13
2024-02-27T13:18:18.207Z,4.95
2024-02-27T13:20:48.398Z,5.65
2024-02-27T13:23:24.046Z,4.88
2024-02-27T13:26:00.574Z,5.45
2024-02-27T13:28:28.915Z,4.97
2024-02-27T13:30:56.882Z,5.15
2024-02-27T13:33:24.046Z,4.53
2024-02-27T13:35:50.687Z,5.55
2024-02-27T13:38:17.304Z,5.03
2024-02-27T13:40:46.131Z,4.53
2024-02-27T13:43:14.520Z,5.13
2024-02-27T13:45:41.097Z,5.82
2024-02-27T13:48:10.263Z,5.05
2024-02-27T13:50:37.164Z,4.68
2024-02-27T13:53:03.834Z,4.60
2024-02-27T13:55:30.608Z,5.45
2024-02-27T13:57:57.248Z,4.85
2024-02-27T14:00:24.107Z,4.35
2024-02-27T14:02:50.844Z,4.90
2024-02-27T14:05:17.570Z,4.50
2024-02-27T14:07:44.156Z,4.80
2024-02-27T14:10:10.767Z,4.63
2024-02-27T14:12:38.500Z,4.28
2024-02-27T14:15:07.107Z,5.20
2024-02-27T14:17:35.511Z,4.80
2024-02-27T14:20:02.330Z,4.97
2024-02-27T14:22:29.114Z,4.13
2024-02-27T14:24:56.484Z,5.50
2024-02-27T14:27:23.545Z,4.80
2024-02-27T14:29:50.151Z,4.65
2024-02-27T14:32:17.576Z,4.55
2024-02-27T14:34:44.264Z,4.55
2024-02-27T14:37:11.004Z,4.18
2024-02-27T14:39:37.628Z,4.65
2024-02-27T14:42:04.541Z,4.63
2024-02-27T14:44:31.055Z,4.80
2024-02-27T14:46:57.812Z,4.65
2024-02-27T14:49:24.732Z,4.75
2024-02-27T14:51:54.458Z,5.10
2024-02-27T14:54:22.677Z,4.80
2024-02-27T14:56:49.648Z,4.65
2024-02-27T14:59:25.372Z,4.60
2024-02-27T15:02:00.226Z,4.13
2024-02-27T15:06:56.682Z,4.13
2024-02-27T15:09:23.329Z,5.03
2024-02-27T15:11:50.058Z,4.18
2024-02-27T15:14:16.818Z,3.80
2024-02-27T15:16:43.511Z,4.53
2024-02-27T15:19:10.116Z,4.88
2024-02-27T15:21:36.942Z,5.90
2024-02-27T15:24:04.813Z,5.03
2024-02-27T15:26:31.744Z,6.18
2024-02-27T15:28:58.604Z,6.05
2024-02-27T15:31:25.298Z,5.90
2024-02-27T15:33:52.046Z,5.88
2024-02-27T15:36:19.539Z,5.28
2024-02-27T15:38:46.180Z,6.05
2024-02-27T15:41:12.800Z,6.65
2024-02-27T15:43:39.947Z,5.22
2024-02-27T15:46:10.403Z,6.60
2024-02-27T15:48:37.482Z,6.10
2024-02-27T15:51:12.577Z,5.95
2024-02-27T15:53:40.239Z,5.43
2024-02-27T15:56:10.512Z,6.40
2024-02-27T15:58:38.420Z,6.28
2024-02-27T16:01:05.527Z,6.28
2024-02-27T16:04:03.961Z,5.53
2024-02-27T16:06:46.362Z,6.55
2024-02-27T16:09:13.034Z,6.20
2024-02-27T16:11:39.704Z,6.10
2024-02-27T16:14:06.322Z,5.75
2024-02-27T16:16:32.949Z,5.32
2024-02-27T16:18:59.813Z,5.80
2024-02-27T16:21:29.588Z,5.03
2024-02-27T16:23:56.139Z,4.72
2024-02-27T16:26:22.748Z,5.45
2024-02-27T16:28:49.355Z,5.90
2024-02-27T16:31:15.815Z,6.00
2024-02-27T16:33:42.527Z,5.18
2024-02-27T16:36:09.498Z,6.20
2024-02-27T16:38:36.165Z,5.25
2024-02-27T16:41:02.742Z,6.03
2024-02-27T16:43:29.281Z,5.35
2024-02-27T16:45:56.189Z,5.80
2024-02-27T16:48:23.031Z,5.45
2024-02-27T16:50:49.613Z,5.57
2024-02-27T16:53:16.266Z,5.57
2024-02-27T16:55:42.776Z,5.50
2024-02-27T16:58:09.431Z,5.90
2024-02-27T17:00:36.266Z,5.47
2024-02-27T17:03:04.043Z,6.35
2024-02-27T17:05:31.459Z,6.00
2024-02-27T17:07:58.621Z,7.97
2024-02-27T17:10:27.444Z,6.28
2024-02-27T17:12:56.090Z,6.93
2024-02-27T17:15:24.292Z,6.35
2024-02-27T17:17:52.316Z,6.70
2024-02-27T17:20:22.303Z,6.78
2024-02-27T17:22:48.893Z,6.15
2024-02-27T17:25:15.503Z,5.78
2024-02-27T17:27:42.072Z,5.30
2024-02-27T17:30:09.228Z,6.75
2024-02-27T17:32:35.919Z,7.05
2024-02-27T17:35:02.756Z,6.05
2024-02-27T17:37:29.515Z,5.55
2024-02-27T17:39:56.020Z,5.75
2024-02-27T17:42:23.127Z,5.57
2024-02-27T17:44:51.086Z,5.97
2024-02-27T17:47:18.062Z,5.85
2024-02-27T17:49:44.720Z,6.88
2024-02-27T17:52:11.417Z,5.63
2024-02-27T17:54:41.773Z,6.38
2024-02-27T17:57:08.438Z,5.57
2024-02-27T17:59:35.322Z,4.70
2024-02-27T18:02:03.573Z,5.30
2024-02-27T18:04:30.978Z,6.07
2024-02-27T18:06:57.954Z,6.50
2024-02-27T18:09:25.621Z,5.10
2024-02-27T18:11:52.385Z,5.07
2024-02-27T18:14:20.172Z,6.50
2024-02-27T18:16:46.853Z,6.47
2024-02-27T18:19:13.729Z,5.82
2024-02-27T18:21:43.459Z,6.88
2024-02-27T18:24:10.857Z,6.15
2024-02-27T18:26:37.630Z,6.35
2024-02-27T18:29:04.421Z,7.15
2024-02-27T18:31:31.275Z,7.53
2024-02-27T18:33:58.138Z,6.30
2024-02-27T18:36:24.796Z,6.45
2024-02-27T18:38:51.422Z,5.82
2024-02-27T18:41:17.953Z,4.45
2024-02-27T18:43:44.516Z,5.97
2024-02-27T18:46:13.063Z,6.72
2024-02-27T18:48:40.017Z,6.45
2024-02-27T18:51:08.728Z,6.63
2024-02-27T18:53:37.995Z,6.28
2024-02-27T18:56:05.069Z,5.57
2024-02-27T18:58:31.559Z,6.30
2024-02-27T19:00:58.220Z,7.03
2024-02-27T19:03:24.871Z,6.72
2024-02-27T19:05:51.445Z,5.97
2024-02-27T19:08:20.079Z,6.35
2024-02-27T19:10:46.803Z,6.97
2024-02-27T19:13:13.844Z,6.15
2024-02-27T19:15:40.777Z,8.52
2024-02-27T19:18:07.569Z,5.20
2024-02-27T19:20:34.309Z,7.57
2024-02-27T19:23:00.890Z,5.22
2024-02-27T19:25:27.346Z,6.40
2024-02-27T19:27:54.199Z,6.00
2024-02-27T19:30:20.922Z,5.30
2024-02-27T19:32:47.525Z,7.10
2024-02-27T19:35:14.181Z,7.25
2024-02-27T19:37:40.743Z,7.25
2024-02-27T19:40:07.745Z,7.53
2024-02-27T19:42:36.278Z,7.22
2024-02-27T19:45:02.856Z,6.90
2024-02-27T19:47:29.459Z,9.40
2024-02-27T19:49:56.354Z,7.90
2024-02-27T19:52:22.875Z,5.85
2024-02-27T19:54:49.416Z,7.25
2024-02-27T19:57:16.048Z,6.80
2024-02-27T19:59:42.804Z,6.50
2024-02-27T20:02:09.381Z,6.60
2024-02-27T20:04:35.931Z,7.47
2024-02-27T20:07:02.590Z,6.45
2024-02-27T20:09:29.463Z,6.63
2024-02-27T20:11:55.972Z,5.40
2024-02-27T20:14:22.732Z,6.40
2024-02-27T20:16:49.302Z,7.63
2024-02-27T20:19:15.851Z,7.65
2024-02-27T20:21:42.902Z,8.52
2024-02-27T20:24:09.576Z,7.28
2024-02-27T20:26:41.779Z,6.80
2024-02-27T20:29:08.571Z,4.57
2024-02-27T20:31:36.332Z,6.00
2024-02-27T20:34:04.083Z,8.40
2024-02-27T20:36:31.035Z,8.57
2024-02-27T20:38:57.551Z,7.57
2024-02-27T20:41:24.112Z,6.75
2024-02-27T20:43:50.668Z,7.25
2024-02-27T20:46:19.539Z,6.35
2024-02-27T20:48:46.073Z,6.15
2024-02-27T20:51:12.588Z,6.30
2024-02-27T20:53:39.282Z,7.35
2024-02-27T20:56:08.044Z,6.20
2024-02-27T20:58:35.633Z,6.18
2024-02-27T21:01:02.429Z,7.20
2024-02-27T21:03:29.046Z,7.85
2024-02-27T21:05:55.593Z,6.78
2024-02-27T21:08:22.198Z,7.53
2024-02-27T21:10:48.786Z,6.78
2024-02-27T21:13:16.474Z,6.90
2024-02-27T21:15:43.363Z,6.53
2024-02-27T21:18:10.090Z,7.72
2024-02-27T21:20:41.152Z,3.85
2024-02-27T21:23:07.685Z,7.53
2024-02-27T21:25:34.295Z,6.93
2024-02-27T21:28:02.374Z,7.32
2024-02-27T21:30:28.945Z,5.70
2024-02-27T21:32:55.626Z,8.05
2024-02-27T21:35:22.260Z,6.78
2024-02-27T21:37:49.968Z,7.80
2024-02-27T21:40:16.655Z,8.32
2024-02-27T21:42:43.251Z,5.43
2024-02-27T21:45:13.012Z,6.80
2024-02-27T21:47:40.464Z,8.13
2024-02-27T21:50:07.869Z,8.50
2024-02-27T21:52:34.420Z,6.82
2024-02-27T21:55:01.048Z,7.97
2024-02-27T21:57:27.560Z,5.90
2024-02-27T21:59:54.108Z,7.18
2024-02-27T22:02:20.615Z,10.32
2024-02-27T22:04:47.652Z,6.25
2024-02-27T22:07:14.191Z,8.63
2024-02-27T22:09:40.822Z,8.98
2024-02-27T22:12:07.695Z,5.72
2024-02-27T22:14:34.260Z,8.07
2024-02-27T22:17:00.809Z,6.95
2024-02-27T22:19:27.447Z,7.57
2024-02-27T22:21:53.971Z,8.00
2024-02-27T22:24:20.666Z,6.25
2024-02-27T22:26:47.569Z,7.40
2024-02-27T22:29:14.042Z,8.70
2024-02-27T22:31:40.683Z,8.60
2024-02-27T22:34:07.280Z,7.05
2024-02-27T22:36:33.850Z,7.22
2024-02-27T22:39:00.521Z,7.72
2024-02-27T22:41:27.080Z,6.13
2024-02-27T22:43:53.868Z,7.43
2024-02-27T22:46:25.616Z,6.57
2024-02-27T22:48:52.747Z,6.47
2024-02-27T22:51:19.680Z,6.55
2024-02-27T22:53:46.723Z,8.70
2024-02-27T22:56:13.345Z,6.25
2024-02-27T22:58:39.890Z,7.63
2024-02-27T23:01:06.691Z,6.47
2024-02-27T23:03:33.369Z,6.88
2024-02-27T23:06:00.136Z,6.47
2024-02-27T23:08:26.718Z,7.40
2024-02-27T23:10:54.020Z,7.38
2024-02-27T23:13:20.773Z,6.43
2024-02-27T23:15:48.848Z,7.85
2024-02-27T23:18:16.309Z,7.75
2024-02-27T23:20:44.852Z,7.97
2024-02-27T23:23:11.389Z,7.07
2024-02-27T23:25:38.669Z,6.60
2024-02-27T23:28:05.600Z,9.23
2024-02-27T23:30:32.657Z,7.50
2024-02-27T23:32:59.185Z,5.88
2024-02-27T23:35:25.730Z,7.22
2024-02-27T23:37:52.278Z,6.60
2024-02-27T23:40:19.112Z,5.40
2024-02-27T23:42:46.782Z,5.13
2024-02-27T23:45:13.498Z,4.32
2024-02-27T23:47:41.133Z,7.00
2024-02-27T23:50:08.646Z,7.57
2024-02-27T23:52:35.184Z,6.43
2024-02-27T23:55:01.722Z,6.43
2024-02-27T23:57:28.264Z,7.25
2024-02-27T23:59:55.050Z,6.60
